Time;durP1;ratioP1;P1;durP2;ratioP2;P2;SDS_P1;SDS_P2;PMS_P1;PMS_P2;Temp;Humidity;BMP_temperature;BMP_pressure;BME280_temperature;BME280_humidity;BME280_pressure;Samples;Min_cycle;Max_cycle;Signal;HPM_P1;HPM_P2
2023/05/04 00:02:09;;;;;;;4.43;3.50;;;;;;;10.29;99.91;96019.03;5054234;28;20053;-70
2023/05/04 00:04:34;;;;;;;3.55;3.25;;;;;;;10.24;99.94;96007.25;5050199;28;20082;-71
2023/05/04 00:06:59;;;;;;;3.90;3.60;;;;;;;10.20;99.43;96019.00;5052222;28;20032;-71
2023/05/04 00:09:25;;;;;;;4.03;3.72;;;;;;;10.13;100.00;96005.53;5053990;28;20607;-71
2023/05/04 00:11:50;;;;;;;6.00;3.58;;;;;;;10.16;99.38;96013.16;5052939;28;20021;-71
2023/05/04 00:14:16;;;;;;;3.88;3.45;;;;;;;10.16;100.00;96011.34;5052286;28;20017;-71
2023/05/04 00:16:41;;;;;;;7.97;4.10;;;;;;;10.18;99.17;96011.22;5065312;28;20085;-71
2023/05/04 00:19:07;;;;;;;3.65;3.45;;;;;;;10.19;98.84;96015.53;5052119;28;20029;-71
2023/05/04 00:21:32;;;;;;;3.50;3.30;;;;;;;10.15;99.72;96009.69;5053213;28;20021;-70
2023/05/04 00:23:58;;;;;;;3.90;3.60;;;;;;;10.08;100.00;96003.28;5048450;28;20033;-70
2023/05/04 00:26:23;;;;;;;4.40;3.90;;;;;;;10.06;100.00;96007.84;5062189;28;20169;-71
2023/05/04 00:28:48;;;;;;;4.20;3.90;;;;;;;10.01;100.00;96002.97;5054046;28;20021;-71
2023/05/04 00:31:14;;;;;;;4.13;3.58;;;;;;;9.98;100.00;96005.88;5046833;28;20022;-71
2023/05/04 00:33:39;;;;;;;4.18;3.78;;;;;;;9.99;100.00;96007.53;5050648;28;20028;-71
2023/05/04 00:36:05;;;;;;;4.00;3.50;;;;;;;9.98;100.00;96011.13;5047474;28;20044;-71
2023/05/04 00:38:34;;;;;;;4.65;4.07;;;;;;;9.89;100.00;96004.03;5049630;28;20040;-71
2023/05/04 00:41:00;;;;;;;4.03;3.83;;;;;;;9.81;100.00;96002.03;5054124;28;20045;-71
2023/05/04 00:43:26;;;;;;;5.20;3.90;;;;;;;9.82;100.00;95992.34;5049867;28;20385;-71
2023/05/04 00:45:51;;;;;;;4.65;3.50;;;;;;;9.79;100.00;95990.81;5048902;28;20474;-71
2023/05/04 00:48:17;;;;;;;4.00;3.72;;;;;;;9.83;100.00;95986.13;5048886;28;20448;-71
2023/05/04 00:50:42;;;;;;;4.38;4.00;;;;;;;9.77;100.00;95982.25;5047366;28;20021;-71
2023/05/04 00:53:10;;;;;;;4.13;3.78;;;;;;;9.72;100.00;95990.50;5050140;28;20761;-71
2023/05/04 00:55:38;;;;;;;4.70;3.47;;;;;;;9.73;100.00;95984.28;5061750;28;20033;-71
2023/05/04 00:58:05;;;;;;;5.13;4.20;;;;;;;9.67;100.00;95986.59;5052220;28;20029;-70
2023/05/04 01:00:30;;;;;;;4.88;3.83;;;;;;;9.62;100.00;95984.38;5044333;28;20428;-71
2023/05/04 01:02:56;;;;;;;8.52;4.05;;;;;;;9.60;100.00;95975.75;5043266;28;20101;-71
2023/05/04 01:05:25;;;;;;;4.47;4.15;;;;;;;9.56;100.00;95977.81;5053447;28;20021;-70
2023/05/04 01:08:14;;;;;;;5.75;3.88;;;;;;;9.54;100.00;95963.97;5041781;28;20511;-71
2023/05/04 01:10:51;;;;;;;4.50;3.88;;;;;;;9.54;100.00;95973.66;5051352;28;20485;-71
2023/05/04 01:13:19;;;;;;;3.65;3.45;;;;;;;9.52;100.00;95978.19;5048751;28;20473;-71
2023/05/04 01:15:45;;;;;;;4.65;4.35;;;;;;;9.49;100.00;95978.47;5044697;28;20385;-71
2023/05/04 01:18:11;;;;;;;4.60;4.15;;;;;;;9.51;100.00;95977.38;5049025;28;20030;-71
2023/05/04 01:20:36;;;;;;;4.25;3.90;;;;;;;9.54;100.00;95979.75;5043749;28;20021;-72
2023/05/04 01:23:02;;;;;;;5.95;4.25;;;;;;;9.50;100.00;95970.44;5050344;28;20032;-71
2023/05/04 01:25:33;;;;;;;4.25;3.90;;;;;;;9.49;100.00;95978.47;5049639;28;20389;-70
2023/05/04 01:28:04;;;;;;;6.90;4.00;;;;;;;9.42;100.00;95978.13;5045064;28;20116;-71
2023/05/04 01:30:34;;;;;;;4.45;4.03;;;;;;;9.41;100.00;95979.94;5046449;28;20021;-71
2023/05/04 01:33:01;;;;;;;4.03;3.70;;;;;;;9.45;100.00;95981.34;5052268;28;20059;-71
2023/05/04 01:35:27;;;;;;;4.28;3.97;;;;;;;9.46;100.00;95969.88;5046142;28;20031;-71
2023/05/04 01:37:53;;;;;;;7.63;3.92;;;;;;;9.54;100.00;95986.78;5044105;28;20048;-71
2023/05/04 01:40:18;;;;;;;5.38;4.05;;;;;;;9.55;100.00;95988.44;5047074;28;20064;-71
2023/05/04 01:42:44;;;;;;;5.20;4.65;;;;;;;9.58;100.00;95993.44;5043447;28;20044;-72
2023/05/04 01:45:10;;;;;;;4.35;3.97;;;;;;;9.55;100.00;95991.94;5042455;28;20020;-71
2023/05/04 01:47:36;;;;;;;3.80;3.45;;;;;;;9.52;100.00;95993.97;5046652;28;20516;-71
2023/05/04 01:50:01;;;;;;;5.03;4.28;;;;;;;9.45;100.00;96006.78;5043479;28;20029;-71
2023/05/04 01:52:26;;;;;;;4.13;3.83;;;;;;;9.41;100.00;96002.75;5044898;28;20052;-71
2023/05/04 01:54:52;;;;;;;4.80;4.00;;;;;;;9.35;100.00;96000.63;5048700;28;21133;-72
2023/05/04 01:57:17;;;;;;;4.70;4.20;;;;;;;9.27;100.00;95996.81;5067016;28;20037;-71
2023/05/04 01:59:43;;;;;;;4.05;3.75;;;;;;;9.25;100.00;96003.19;5048584;28;20036;-71
2023/05/04 02:02:08;;;;;;;4.25;3.92;;;;;;;9.24;100.00;95996.25;5047923;28;20113;-71
2023/05/04 02:04:34;;;;;;;4.25;3.95;;;;;;;9.25;100.00;96000.56;5048753;28;20021;-71
2023/05/04 02:06:59;;;;;;;4.50;4.10;;;;;;;9.21;100.00;96001.78;5051129;28;20185;-71
2023/05/04 02:09:25;;;;;;;4.20;3.90;;;;;;;9.23;100.00;95999.84;5046790;28;20022;-71
2023/05/04 02:11:50;;;;;;;4.25;3.85;;;;;;;9.19;100.00;96003.69;5050137;28;20029;-71
2023/05/04 02:14:15;;;;;;;4.40;4.10;;;;;;;9.17;100.00;95998.56;5048991;28;20501;-72
2023/05/04 02:16:41;;;;;;;3.78;3.55;;;;;;;9.14;100.00;95999.63;5040453;28;20024;-72
2023/05/04 02:19:06;;;;;;;5.20;4.38;;;;;;;9.13;100.00;96000.59;5047894;28;20374;-71
2023/05/04 02:21:32;;;;;;;4.78;4.35;;;;;;;9.16;100.00;96002.97;5048343;28;20112;-71
2023/05/04 02:23:58;;;;;;;4.03;3.83;;;;;;;9.17;100.00;96007.28;5048111;28;20029;-71
2023/05/04 02:26:23;;;;;;;4.30;4.00;;;;;;;9.19;100.00;96009.75;5047280;28;20020;-71
2023/05/04 02:28:49;;;;;;;4.68;4.22;;;;;;;9.16;100.00;95999.50;5046418;28;20028;-71
2023/05/04 02:31:14;;;;;;;4.53;4.13;;;;;;;9.18;100.00;95997.59;5046098;28;20025;-71
2023/05/04 02:33:40;;;;;;;4.22;3.92;;;;;;;9.25;100.00;96005.81;5050139;28;20504;-71
2023/05/04 02:36:06;;;;;;;4.53;4.18;;;;;;;9.23;100.00;96008.56;5051334;28;20024;-71
2023/05/04 02:38:31;;;;;;;5.15;4.47;;;;;;;9.16;100.00;96010.84;5050412;28;20069;-70
2023/05/04 02:40:57;;;;;;;4.97;4.47;;;;;;;9.12;100.00;96014.69;5054506;28;20143;-71
2023/05/04 02:43:22;;;;;;;4.60;4.22;;;;;;;9.04;100.00;96014.47;5048663;28;20060;-71
2023/05/04 02:45:48;;;;;;;4.43;4.15;;;;;;;9.02;100.00;96019.03;5051301;28;21544;-71
2023/05/04 02:48:13;;;;;;;4.57;4.28;;;;;;;9.00;100.00;96016.50;5059916;28;20033;-71
2023/05/04 02:50:39;;;;;;;4.43;4.13;;;;;;;9.04;100.00;96014.47;5053155;28;20068;-72
2023/05/04 02:53:04;;;;;;;4.45;4.15;;;;;;;8.96;100.00;96022.16;5055568;28;20111;-71
2023/05/04 02:55:30;;;;;;;10.00;4.28;;;;;;;8.90;100.00;96023.47;5052399;28;20048;-71
2023/05/04 02:57:55;;;;;;;4.70;4.30;;;;;;;8.82;100.00;96028.50;5050181;28;20032;-71
2023/05/04 03:00:21;;;;;;;4.47;4.07;;;;;;;8.82;100.00;96025.88;5047488;28;20029;-71
2023/05/04 03:02:46;;;;;;;4.75;4.45;;;;;;;8.78;100.00;96025.28;5052987;28;20071;-71
2023/05/04 03:05:11;;;;;;;4.10;3.90;;;;;;;8.72;100.00;96016.13;5052999;28;20024;-72
2023/05/04 03:07:37;;;;;;;7.47;4.20;;;;;;;8.66;100.00;96008.72;5055235;28;20056;-71
2023/05/04 03:10:02;;;;;;;4.47;4.18;;;;;;;8.71;100.00;96011.81;5053325;28;20028;-71
2023/05/04 03:12:28;;;;;;;5.15;4.75;;;;;;;8.67;100.00;96012.19;5056897;28;20013;-71
2023/05/04 03:14:53;;;;;;;4.93;4.10;;;;;;;8.67;100.00;96004.31;5053300;28;20393;-71
2023/05/04 03:17:18;;;;;;;4.63;4.32;;;;;;;8.74;100.00;95998.44;5052816;28;20621;-71
2023/05/04 03:19:44;;;;;;;4.82;4.38;;;;;;;8.75;100.00;95994.03;5054453;28;20021;-71
2023/05/04 03:22:09;;;;;;;5.82;4.13;;;;;;;8.72;100.00;95991.63;5055444;28;20021;-71
2023/05/04 03:24:36;;;;;;;4.55;4.25;;;;;;;8.68;100.00;95998.94;5046747;28;20459;-71
2023/05/04 03:27:02;;;;;;;4.70;4.28;;;;;;;8.68;100.00;95998.09;5053240;28;20029;-71
2023/05/04 03:29:27;;;;;;;4.35;4.00;;;;;;;8.67;100.00;95993.81;5052713;28;20022;-71
2023/05/04 03:31:52;;;;;;;4.43;4.10;;;;;;;8.63;100.00;95993.22;5056996;28;20086;-71
2023/05/04 03:34:20;;;;;;;5.40;4.90;;;;;;;8.55;100.00;95985.97;5046478;28;20017;-71
2023/05/04 03:36:47;;;;;;;6.75;4.57;;;;;;;8.60;100.00;95991.69;5053914;28;20113;-71
2023/05/04 03:39:12;;;;;;;4.85;4.55;;;;;;;8.55;100.00;95991.22;5053225;28;20052;-71
2023/05/04 03:41:38;;;;;;;4.82;4.40;;;;;;;8.57;100.00;95994.56;5062745;28;20048;-71
2023/05/04 03:44:03;;;;;;;4.75;4.45;;;;;;;8.63;100.00;96000.25;5050793;28;20485;-71
2023/05/04 03:46:29;;;;;;;5.93;4.47;;;;;;;8.63;100.00;95992.38;5052314;28;20453;-71
2023/05/04 03:48:56;;;;;;;4.72;4.22;;;;;;;8.58;100.00;95993.59;5050935;28;20371;-71
2023/05/04 03:51:21;;;;;;;4.53;4.20;;;;;;;8.52;100.00;95988.84;5052050;28;20509;-71
2023/05/04 03:53:47;;;;;;;7.63;5.18;;;;;;;8.50;100.00;95997.78;5066616;28;20079;-71
2023/05/04 03:56:12;;;;;;;4.68;4.25;;;;;;;8.46;100.00;96007.63;5055556;28;20086;-72
2023/05/04 03:58:38;;;;;;;5.78;4.35;;;;;;;8.48;100.00;95994.41;5051966;28;20052;-71
2023/05/04 04:01:03;;;;;;;4.32;4.03;;;;;;;8.47;100.00;96006.69;5052340;28;20100;-72
2023/05/04 04:03:29;;;;;;;4.47;4.18;;;;;;;8.48;100.00;95992.59;5044394;28;20027;-71
2023/05/04 04:05:55;;;;;;;5.25;4.78;;;;;;;8.47;100.00;95998.81;5056615;28;20075;-70
2023/05/04 04:08:20;;;;;;;4.45;4.05;;;;;;;8.46;100.00;96002.41;5052650;28;20473;-72
2023/05/04 04:10:46;;;;;;;4.78;4.40;;;;;;;8.46;100.00;95999.78;5056384;28;20056;-72
2023/05/04 04:13:11;;;;;;;4.40;4.03;;;;;;;8.44;100.00;96002.53;5051661;28;20100;-71
2023/05/04 04:15:37;;;;;;;5.22;4.72;;;;;;;8.40;100.00;96005.50;5053723;28;20182;-71
2023/05/04 04:18:02;;;;;;;4.97;4.50;;;;;;;8.37;100.00;96009.19;5052746;28;20029;-72
2023/05/04 04:20:28;;;;;;;4.65;4.35;;;;;;;8.38;100.00;96007.41;5055681;28;20408;-71
2023/05/04 04:22:53;;;;;;;5.75;5.20;;;;;;;8.41;100.00;96004.56;5053571;28;20029;-70
2023/05/04 04:25:18;;;;;;;5.30;4.90;;;;;;;8.42;100.00;96011.47;5065178;28;20128;-72
2023/05/04 04:27:44;;;;;;;4.90;4.57;;;;;;;8.40;100.00;96008.97;5051760;28;20050;-71
2023/05/04 04:30:11;;;;;;;5.65;5.15;;;;;;;8.44;100.00;96012.19;5052563;28;20025;-70
2023/05/04 04:32:36;;;;;;;5.78;4.70;;;;;;;8.37;100.00;96006.56;5050203;28;20049;-72
2023/05/04 04:35:03;;;;;;;4.88;4.43;;;;;;;8.36;100.00;96015.41;5054530;28;20036;-72
2023/05/04 04:37:28;;;;;;;11.82;5.28;;;;;;;8.33;100.00;96007.78;5052416;28;20035;-72
2023/05/04 04:39:54;;;;;;;5.38;4.75;;;;;;;8.29;100.00;96022.94;5057989;28;20135;-72
2023/05/04 04:42:19;;;;;;;4.85;4.45;;;;;;;8.29;100.00;96012.44;5055220;28;20024;-72
2023/05/04 04:44:44;;;;;;;6.72;5.10;;;;;;;8.34;100.00;96012.06;5055015;28;20202;-71
2023/05/04 04:47:10;;;;;;;5.53;5.00;;;;;;;8.40;100.00;96019.47;5048755;28;20474;-71
2023/05/04 04:49:36;;;;;;;5.65;5.20;;;;;;;8.43;100.00;96013.13;5054099;28;20035;-72
2023/05/04 04:52:02;;;;;;;7.03;4.88;;;;;;;8.44;100.00;96012.19;5058270;28;20020;-71
2023/05/04 04:54:28;;;;;;;9.48;4.72;;;;;;;8.44;100.00;96015.66;5053280;28;20143;-71
2023/05/04 04:56:53;;;;;;;5.28;4.75;;;;;;;8.46;100.00;96011.13;5052441;28;20096;-72
2023/05/04 04:59:19;;;;;;;5.18;4.85;;;;;;;8.48;100.00;96020.66;5050600;28;20025;-71
2023/05/04 05:01:45;;;;;;;7.95;4.93;;;;;;;8.45;100.00;96019.09;5050240;28;20033;-71
2023/05/04 05:04:10;;;;;;;5.63;5.22;;;;;;;8.47;100.00;96022.44;5051982;28;20397;-71
2023/05/04 05:06:35;;;;;;;5.88;4.70;;;;;;;8.50;100.00;96024.03;5047258;28;20017;-72
2023/05/04 05:09:01;;;;;;;6.00;5.10;;;;;;;8.54;100.00;96015.78;5052526;28;20485;-71
2023/05/04 05:11:27;;;;;;;5.70;5.28;;;;;;;8.58;100.00;96016.38;5054398;28;20354;-71
2023/05/04 05:13:52;;;;;;;7.53;5.63;;;;;;;8.56;100.00;96019.13;5046584;28;20047;-72
2023/05/04 05:16:17;;;;;;;9.73;5.68;;;;;;;8.53;100.00;96015.91;5050340;28;20029;-71
2023/05/04 05:18:43;;;;;;;10.43;6.18;;;;;;;8.57;100.00;96012.06;5047259;28;20078;-71
2023/05/04 05:21:09;;;;;;;7.60;5.88;;;;;;;8.61;100.00;96016.13;5054937;28;20017;-72
2023/05/04 05:23:34;;;;;;;6.35;5.75;;;;;;;8.60;100.00;96014.44;5051235;28;20485;-73
2023/05/04 05:26:00;;;;;;;6.93;5.40;;;;;;;8.67;100.00;96012.19;5051071;28;20021;-71
2023/05/04 05:28:26;;;;;;;7.05;5.75;;;;;;;8.72;100.00;96015.25;5043622;28;20028;-71
2023/05/04 05:30:51;;;;;;;6.22;5.80;;;;;;;8.73;100.00;96019.56;5054675;28;20020;-71
2023/05/04 05:33:17;;;;;;;6.20;5.65;;;;;;;8.80;100.00;96025.16;5047101;28;20021;-71
2023/05/04 05:35:43;;;;;;;7.00;5.38;;;;;;;8.88;100.00;96020.16;5052271;28;20485;-73
2023/05/04 05:38:09;;;;;;;5.93;5.25;;;;;;;9.07;100.00;96023.91;5051651;28;20059;-73
2023/05/04 05:40:35;;;;;;;7.43;6.03;;;;;;;9.40;100.00;96022.94;5048508;28;20029;-74
2023/05/04 05:43:01;;;;;;;7.05;5.85;;;;;;;9.50;100.00;96036.13;5051810;28;20032;-73
2023/05/04 05:45:27;;;;;;;7.90;5.55;;;;;;;9.62;100.00;96033.47;5048977;28;20073;-75
2023/05/04 05:47:52;;;;;;;11.00;6.70;;;;;;;9.70;100.00;96031.88;5049091;28;20021;-73
2023/05/04 05:50:19;;;;;;;7.57;6.07;;;;;;;9.92;100.00;96034.47;5045656;28;20033;-75
2023/05/04 05:52:44;;;;;;;8.85;7.60;;;;;;;10.12;100.00;96038.88;5049758;28;20017;-75
2023/05/04 05:55:10;;;;;;;11.15;7.90;;;;;;;10.31;100.00;96035.53;5044346;28;20040;-78
2023/05/04 05:57:35;;;;;;;9.18;8.27;;;;;;;10.52;100.00;96034.69;5040559;28;20036;-73
2023/05/04 06:00:00;;;;;;;7.03;6.43;;;;;;;10.66;100.00;96043.16;5048924;28;20083;-72
2023/05/04 06:02:26;;;;;;;5.90;5.28;;;;;;;10.86;100.00;96041.44;5051967;28;20021;-76
2023/05/04 06:04:54;;;;;;;8.25;4.90;;;;;;;11.10;100.00;96040.22;5049858;28;20033;-73
2023/05/04 06:07:20;;;;;;;6.35;5.28;;;;;;;11.32;100.00;96037.34;5051591;28;20032;-73
2023/05/04 06:09:45;;;;;;;7.93;5.10;;;;;;;11.51;100.00;96040.09;5045611;28;20414;-73
2023/05/04 06:12:12;;;;;;;5.40;4.90;;;;;;;11.65;100.00;96036.19;5048127;28;20025;-73
2023/05/04 06:14:41;;;;;;;5.70;5.18;;;;;;;11.72;100.00;96042.59;5055266;28;20052;-73
2023/05/04 06:17:06;;;;;;;4.53;4.05;;;;;;;11.89;100.00;96036.59;5057629;28;20031;-73
2023/05/04 06:19:36;;;;;;;4.78;3.90;;;;;;;12.12;98.33;96032.81;5051641;28;20033;-74
2023/05/04 06:22:02;;;;;;;4.15;3.90;;;;;;;12.33;97.36;96035.25;5052228;28;20029;-74
2023/05/04 06:24:28;;;;;;;4.28;3.55;;;;;;;12.66;96.12;96029.56;5053818;28;20107;-73
2023/05/04 06:26:54;;;;;;;4.15;3.75;;;;;;;12.95;93.68;96023.31;5057666;28;20114;-72
2023/05/04 06:29:19;;;;;;;3.72;3.53;;;;;;;13.16;92.28;96029.16;5055769;28;20397;-74
2023/05/04 06:31:46;;;;;;;4.40;3.90;;;;;;;13.36;89.35;96036.09;5052281;28;20090;-73
2023/05/04 06:34:11;;;;;;;4.15;3.75;;;;;;;13.71;88.85;96039.75;5055967;28;20082;-73
2023/05/04 06:36:37;;;;;;;3.40;3.20;;;;;;;14.04;86.35;96030.22;5055748;28;20021;-73
2023/05/04 06:39:02;;;;;;;3.40;3.10;;;;;;;14.28;84.37;96036.66;5054226;28;20423;-73
2023/05/04 06:41:28;;;;;;;4.57;3.42;;;;;;;14.46;81.92;96043.69;5055865;28;20028;-71
2023/05/04 06:43:53;;;;;;;3.63;3.33;;;;;;;14.77;82.66;96040.56;5053518;28;20076;-72
2023/05/04 06:46:18;;;;;;;5.75;3.20;;;;;;;14.95;80.23;96032.50;5057414;28;20103;-72
2023/05/04 06:48:44;;;;;;;5.30;3.15;;;;;;;15.27;78.92;96038.91;5051921;28;20033;-72
2023/05/04 06:51:09;;;;;;;3.50;3.20;;;;;;;15.60;76.98;96035.47;5053573;28;20512;-73
2023/05/04 06:53:35;;;;;;;4.13;3.05;;;;;;;15.85;76.06;96030.16;5052625;28;20504;-73
2023/05/04 06:56:01;;;;;;;4.90;3.15;;;;;;;16.29;74.17;96027.13;5051437;28;20061;-73
2023/05/04 06:58:27;;;;;;;3.08;2.63;;;;;;;16.76;72.34;96014.84;5054059;28;20029;-73
2023/05/04 07:00:52;;;;;;;3.22;2.75;;;;;;;17.16;70.97;96024.66;5054268;28;20170;-73
2023/05/04 07:03:17;;;;;;;2.40;2.30;;;;;;;17.27;67.92;96016.28;5057632;28;20068;-73
2023/05/04 07:05:47;;;;;;;3.35;2.35;;;;;;;17.21;66.61;96018.81;5055632;28;20557;-73
2023/05/04 07:08:13;;;;;;;3.58;2.60;;;;;;;17.40;68.99;96017.50;5047705;28;20029;-73
2023/05/04 07:10:38;;;;;;;2.53;2.33;;;;;;;17.93;65.18;96016.78;5053591;28;20032;-73
2023/05/04 07:13:04;;;;;;;3.00;2.70;;;;;;;18.11;61.82;96016.47;5056109;28;20032;-73
2023/05/04 07:15:30;;;;;;;2.47;2.38;;;;;;;18.25;62.69;96009.50;5056160;28;20033;-73
2023/05/04 07:17:55;;;;;;;2.30;2.20;;;;;;;18.35;60.54;96007.41;5053380;28;20028;-73
2023/05/04 07:20:21;;;;;;;2.70;2.50;;;;;;;18.43;61.11;96014.47;5053849;28;20029;-73
2023/05/04 07:22:46;;;;;;;5.10;2.67;;;;;;;18.71;61.70;96008.50;5052520;28;20051;-73
2023/05/04 07:25:12;;;;;;;2.63;2.42;;;;;;;18.97;60.07;96007.97;5054309;28;20033;-73
2023/05/04 07:27:38;;;;;;;2.83;2.42;;;;;;;19.17;58.63;96010.94;5049691;28;20025;-73
2023/05/04 07:30:07;;;;;;;2.95;2.60;;;;;;;19.63;57.77;96003.59;5060597;28;20110;-73
2023/05/04 07:32:32;;;;;;;2.60;2.40;;;;;;;19.98;54.65;96010.88;5054359;28;20496;-73
2023/05/04 07:34:57;;;;;;;2.90;2.17;;;;;;;20.38;53.19;96000.47;5053025;28;20037;-70
2023/05/04 07:37:23;;;;;;;2.80;2.60;;;;;;;20.71;53.31;96013.19;5054046;28;20024;-74
2023/05/04 07:39:48;;;;;;;2.10;2.00;;;;;;;20.90;52.23;96010.84;5049657;28;20122;-73
2023/05/04 07:42:14;;;;;;;2.50;2.30;;;;;;;21.18;48.35;96004.56;5052276;28;20027;-74
2023/05/04 07:44:40;;;;;;;5.95;2.90;;;;;;;21.44;50.50;95998.44;5051372;28;20104;-71
2023/05/04 07:47:06;;;;;;;2.45;2.25;;;;;;;21.96;48.92;96003.25;5048651;28;20112;-71
2023/05/04 07:49:31;;;;;;;2.47;2.28;;;;;;;22.12;47.68;96004.72;5052918;28;20182;-71
2023/05/04 07:51:57;;;;;;;2.58;2.13;;;;;;;21.84;48.24;96004.94;5055064;28;20087;-74
2023/05/04 07:54:22;;;;;;;2.97;2.28;;;;;;;21.16;48.61;96002.09;5054585;28;20021;-70
2023/05/04 07:56:48;;;;;;;2.20;2.00;;;;;;;21.85;47.22;95998.53;5056530;28;20032;-72
2023/05/04 07:59:16;;;;;;;2.67;2.13;;;;;;;21.59;46.78;95997.47;5049929;28;20029;-72
2023/05/04 08:01:41;;;;;;;2.20;2.10;;;;;;;22.52;45.86;96003.03;5050980;28;20028;-72
2023/05/04 08:04:07;;;;;;;1.80;1.70;;;;;;;22.77;44.68;96003.16;5049895;28;20063;-72
2023/05/04 08:06:38;;;;;;;2.08;1.98;;;;;;;22.91;44.52;96008.50;5053495;28;20067;-72
2023/05/04 08:09:03;;;;;;;2.10;2.00;;;;;;;23.22;43.07;96002.38;5048707;28;20040;-72
2023/05/04 08:11:29;;;;;;;1.98;1.88;;;;;;;23.75;41.97;96003.91;5054240;28;20025;-72
2023/05/04 08:13:55;;;;;;;1.70;1.63;;;;;;;23.30;42.73;96009.34;5055769;28;20036;-72
2023/05/04 08:16:20;;;;;;;2.10;2.00;;;;;;;22.58;43.75;96003.00;5049837;28;20114;-72
2023/05/04 08:18:45;;;;;;;2.00;1.90;;;;;;;22.95;43.78;96007.84;5052858;28;20021;-72
2023/05/04 08:21:11;;;;;;;4.00;2.83;;;;;;;23.83;41.74;95996.63;5056340;28;20032;-72
2023/05/04 08:23:36;;;;;;;2.47;2.28;;;;;;;24.38;40.43;96005.91;5049926;28;20021;-72
2023/05/04 08:26:03;;;;;;;2.10;2.00;;;;;;;24.37;38.47;96006.94;5048677;28;20128;-72
2023/05/04 08:28:29;;;;;;;2.42;2.10;;;;;;;24.24;38.17;96011.44;5051918;28;20017;-73
2023/05/04 08:30:56;;;;;;;1.52;1.52;;;;;;;23.99;39.57;96001.47;5052405;28;20104;-73
2023/05/04 08:33:22;;;;;;;2.30;2.13;;;;;;;24.50;38.34;96000.59;5052310;28;20306;-72
2023/05/04 08:35:48;;;;;;;2.10;2.00;;;;;;;24.26;39.89;96005.81;5048247;28;20068;-72
2023/05/04 08:38:13;;;;;;;2.47;2.28;;;;;;;24.67;39.91;96003.56;5051258;28;20076;-72
2023/05/04 08:40:42;;;;;;;4.30;2.67;;;;;;;25.38;37.95;96005.81;5050705;28;20112;-73
2023/05/04 08:43:08;;;;;;;2.35;2.13;;;;;;;24.83;40.52;96002.97;5054113;28;20120;-72
2023/05/04 08:45:37;;;;;;;4.03;1.98;;;;;;;25.22;39.28;96002.72;5048354;28;20053;-72
2023/05/04 08:48:03;;;;;;;2.33;2.13;;;;;;;25.73;37.36;96002.44;5051528;28;20029;-72
2023/05/04 08:50:28;;;;;;;3.83;2.17;;;;;;;24.91;39.27;96004.53;5054148;28;20029;-71
2023/05/04 08:52:55;;;;;;;3.13;2.10;;;;;;;25.03;37.55;96002.75;5045346;28;20062;-72
2023/05/04 08:55:21;;;;;;;2.55;2.10;;;;;;;25.33;36.98;96001.13;5045029;28;20068;-73
2023/05/04 08:57:47;;;;;;;3.13;2.17;;;;;;;25.45;37.25;95995.78;5051520;28;20366;-72
2023/05/04 09:00:15;;;;;;;2.67;2.30;;;;;;;25.79;36.94;95982.63;5049410;28;20040;-72
2023/05/04 09:02:42;;;;;;;4.47;2.40;;;;;;;25.21;40.33;95998.38;5051261;28;20053;-72
2023/05/04 09:05:10;;;;;;;2.88;2.03;;;;;;;25.21;37.53;95998.38;5049889;28;20039;-71
2023/05/04 09:07:36;;;;;;;2.63;2.03;;;;;;;25.45;36.68;95990.38;5049773;28;20060;-72
2023/05/04 09:10:03;;;;;;;2.45;2.25;;;;;;;26.21;34.97;95986.34;5053602;28;20074;-72
2023/05/04 09:12:28;;;;;;;2.75;2.38;;;;;;;24.95;38.25;95994.94;5053573;28;20031;-72
2023/05/04 09:14:53;;;;;;;3.58;2.88;;;;;;;24.53;39.57;95987.53;5047345;28;20029;-72
2023/05/04 09:17:28;;;;;;;3.90;2.03;;;;;;;24.71;37.86;95994.78;5046424;28;20029;-73
2023/05/04 09:20:01;;;;;;;2.55;2.33;;;;;;;24.50;37.04;95996.06;5049521;28;20033;-72
2023/05/04 09:22:27;;;;;;;2.50;1.90;;;;;;;24.40;37.85;95995.72;5056030;28;20035;-72
2023/05/04 09:24:53;;;;;;;3.58;2.03;;;;;;;24.93;35.80;95998.94;5052153;28;20099;-73
2023/05/04 09:27:18;;;;;;;4.18;2.20;;;;;;;24.82;35.47;95998.63;5052991;28;20025;-73
2023/05/04 09:29:52;;;;;;;4.47;1.98;;;;;;;24.21;37.91;95994.91;5046306;28;20025;-72
2023/05/04 09:32:18;;;;;;;4.35;2.55;;;;;;;23.74;39.51;95993.38;5054116;28;20029;-72
2023/05/04 09:34:50;;;;;;;1.92;1.83;;;;;;;25.15;34.60;95985.81;5057002;28;20037;-72
2023/05/04 09:37:17;;;;;;;3.95;2.25;;;;;;;25.12;34.48;95983.56;5049078;28;20049;-72
2023/05/04 09:39:59;;;;;;;2.47;2.28;;;;;;;24.62;36.96;95988.06;5047477;28;20048;-72
2023/05/04 09:42:25;;;;;;;2.53;2.33;;;;;;;25.14;36.87;95987.69;5049573;28;20645;-72
2023/05/04 09:45:05;;;;;;;2.42;1.90;;;;;;;25.84;34.50;95971.97;5048398;28;20025;-71
2023/05/04 09:47:38;;;;;;;2.15;2.05;;;;;;;26.26;33.76;95973.81;5044894;28;20021;-72
2023/05/04 09:50:18;;;;;;;4.65;1.90;;;;;;;26.17;33.33;95973.31;5049176;28;20040;-73
2023/05/04 09:52:45;;;;;;;2.83;2.05;;;;;;;25.68;33.49;95957.28;5050280;28;20350;-72
2023/05/04 09:55:17;;;;;;;1.98;1.70;;;;;;;25.93;34.12;95967.06;5049765;28;20064;-72
2023/05/04 09:57:44;;;;;;;2.95;1.83;;;;;;;26.30;32.06;95969.56;5051428;28;20029;-72
2023/05/04 10:00:16;;;;;;;1.95;1.85;;;;;;;25.99;32.68;95963.44;5049865;28;20509;-75
2023/05/04 10:02:45;;;;;;;2.88;1.83;;;;;;;25.28;34.63;95963.25;5047160;28;20390;-73
2023/05/04 10:05:17;;;;;;;1.92;1.83;;;;;;;25.59;35.65;95959.50;5054763;28;20040;-73
2023/05/04 10:07:43;;;;;;;4.20;1.80;;;;;;;26.33;32.73;95964.75;5046231;28;20024;-74
2023/05/04 10:10:11;;;;;;;2.05;1.90;;;;;;;26.23;33.30;95952.69;5049416;28;20056;-73
2023/05/04 10:12:37;;;;;;;1.90;1.73;;;;;;;26.28;33.80;95952.78;5051260;28;20021;-74
2023/05/04 10:15:08;;;;;;;2.20;2.10;;;;;;;26.40;33.10;95949.25;5052752;28;20024;-71
2023/05/04 10:17:46;;;;;;;2.30;2.15;;;;;;;26.82;32.76;95954.44;5051351;28;20056;-73
2023/05/04 10:20:25;;;;;;;3.05;2.00;;;;;;;27.20;30.63;95949.56;5044573;28;20040;-72
2023/05/04 10:23:30;;;;;;;1.80;1.70;;;;;;;26.74;31.49;95952.13;5042278;28;20020;-73
2023/05/04 10:26:21;;;;;;;2.00;1.90;;;;;;;26.71;31.95;95948.03;5047852;28;20473;-73
2023/05/04 10:29:11;;;;;;;2.03;1.83;;;;;;;26.97;31.59;95947.75;5051259;28;20236;-73
2023/05/04 10:31:41;;;;;;;2.40;1.63;;;;;;;26.62;32.08;95941.38;5048573;28;20496;-70
2023/05/04 10:34:08;;;;;;;2.10;1.90;;;;;;;26.80;31.02;95950.38;5052729;28;20032;-74
2023/05/04 10:36:42;;;;;;;5.18;1.58;;;;;;;26.31;33.42;95932.63;5047445;28;20052;-73
2023/05/04 10:39:20;;;;;;;;;;;;;;;26.77;32.23;95938.16;5041165;28;20077;-73
2023/05/04 10:41:55;;;;;;;1.80;1.67;;;;;;;26.96;32.46;95922.59;5050690;28;19912;-72
2023/05/04 10:44:21;;;;;;;3.30;2.00;;;;;;;27.37;30.88;95933.38;5051328;28;20057;-73
2023/05/04 10:46:55;;;;;;;2.60;1.77;;;;;;;26.80;32.43;95921.47;5051100;28;20068;-71
2023/05/04 10:49:20;;;;;;;1.75;1.65;;;;;;;27.11;31.79;95922.09;5046735;28;20033;-71
2023/05/04 10:51:46;;;;;;;2.45;1.80;;;;;;;27.60;31.99;95916.19;5053825;28;20024;-73
2023/05/04 10:54:18;;;;;;;3.25;2.13;;;;;;;27.87;30.22;95917.44;5053471;28;20041;-75
2023/05/04 10:56:43;;;;;;;2.10;2.00;;;;;;;27.70;30.40;95910.16;5051097;28;20108;-73
2023/05/04 10:59:09;;;;;;;3.88;1.85;;;;;;;27.84;31.85;95915.25;5049297;28;20073;-72
2023/05/04 11:01:43;;;;;;;2.78;1.65;;;;;;;28.17;30.01;95917.09;5055891;28;20877;-72
2023/05/04 11:04:21;;;;;;;2.08;1.98;;;;;;;27.87;31.68;95915.56;5055910;28;20103;-71
2023/05/04 11:06:59;;;;;;;1.83;1.73;;;;;;;28.12;30.42;95913.47;5045389;28;20332;-72
2023/05/04 11:09:26;;;;;;;3.10;1.98;;;;;;;27.78;31.84;95908.91;5042112;28;20131;-71
2023/05/04 11:11:56;;;;;;;4.18;2.03;;;;;;;28.01;30.93;95905.22;5057859;28;20032;-72
2023/05/04 11:14:26;;;;;;;3.15;1.80;;;;;;;28.05;30.14;95904.72;5055495;28;20397;-71
2023/05/04 11:17:04;;;;;;;2.03;1.90;;;;;;;28.16;29.49;95901.09;5055909;28;20029;-72
2023/05/04 11:19:29;;;;;;;1.85;1.60;;;;;;;28.03;31.65;95892.25;5051141;28;20520;-72
2023/05/04 11:21:55;;;;;;;1.85;1.75;;;;;;;28.08;29.30;95893.41;5056477;28;20060;-74
2023/05/04 11:24:20;;;;;;;3.88;1.30;;;;;;;27.35;30.62;95884.16;5056468;28;20063;-72
2023/05/04 11:26:48;;;;;;;2.10;1.90;;;;;;;27.40;30.87;95884.22;5052598;28;20370;-74
2023/05/04 11:29:13;;;;;;;5.13;2.08;;;;;;;27.42;30.74;95882.09;5055331;28;20044;-73
2023/05/04 11:31:39;;;;;;;1.85;1.75;;;;;;;27.80;29.99;95882.44;5051548;28;20425;-74
2023/05/04 11:34:06;;;;;;;1.90;1.80;;;;;;;27.55;29.75;95864.75;5056725;28;20021;-72